Time;durP1;ratioP1;P1;durP2;ratioP2;P2;SDS_P1;SDS_P2;PMS_P1;PMS_P2;Temp;Humidity;BMP_temperature;BMP_pressure;BME280_temperature;BME280_humidity;BME280_pressure;Samples;Min_cycle;Max_cycle;Signal;HPM_P1;HPM_P2
2023/06/30 00:00:25;;;;;;;0.30;0.30;;;;;;;20.76;54.56;96481.91;29395;290;63005;-53
2023/06/30 00:00:59;;;;;;;0.30;0.30;;;;;;;20.78;54.64;96474.06;29394;198;64009;-58
2023/06/30 00:01:31;;;;;;;0.30;0.30;;;;;;;20.77;54.69;96473.28;29395;208;63005;-52
2023/06/30 00:02:04;;;;;;;0.30;0.30;;;;;;;20.78;54.76;96474.06;29395;282;63009;-59
2023/06/30 00:02:35;;;;;;;0.30;0.30;;;;;;;20.80;54.54;96460.69;29395;301;63004;-59
2023/06/30 00:03:07;;;;;;;0.30;0.30;;;;;;;20.81;54.50;96467.78;29395;215;63009;-59
2023/06/30 00:03:38;;;;;;;0.30;0.30;;;;;;;20.80;54.72;96471.72;29394;256;64009;-57
2023/06/30 00:04:12;;;;;;;0.30;0.30;;;;;;;20.79;54.70;96464.63;29395;244;63009;-58
2023/06/30 00:04:43;;;;;;;0.30;0.30;;;;;;;20.79;54.76;96467.41;29394;198;64008;-53
2023/06/30 00:05:15;;;;;;;0.30;0.30;;;;;;;20.79;54.76;96470.16;29395;263;63008;-59
2023/06/30 00:05:48;;;;;;;0.30;0.30;;;;;;;20.78;54.52;96466.59;29395;203;63005;-52
2023/06/30 00:06:20;;;;;;;0.30;0.30;;;;;;;20.78;54.79;96474.06;29395;263;63009;-58
2023/06/30 00:06:51;;;;;;;0.30;0.30;;;;;;;20.76;54.82;96465.37;29395;219;63005;-58
2023/06/30 00:07:22;;;;;;;0.30;0.30;;;;;;;20.76;54.62;96470.88;29395;210;63009;-52
2023/06/30 00:07:58;;;;;;;0.30;0.30;;;;;;;20.76;54.85;96468.12;29395;212;63005;-52
2023/06/30 00:08:29;;;;;;;0.30;0.30;;;;;;;20.74;54.86;96460.22;29395;321;63009;-52
2023/06/30 00:09:03;;;;;;;0.30;0.30;;;;;;;20.73;54.87;96467.69;29394;207;64009;-60
2023/06/30 00:09:35;;;;;;;0.30;0.30;;;;;;;20.73;54.94;96467.69;29395;222;63023;-58
2023/06/30 00:10:07;;;;;;;0.30;0.30;;;;;;;20.73;54.71;96464.94;29395;279;63004;-52
2023/06/30 00:10:43;;;;;;;0.30;0.30;;;;;;;20.73;55.00;96466.91;29395;199;63009;-52
2023/06/30 00:11:23;;;;;;;0.30;0.30;;;;;;;20.73;54.88;96464.16;29395;249;63004;-52
2023/06/30 00:11:55;;;;;;;0.30;0.30;;;;;;;20.74;54.94;96465.75;29394;217;64009;-59
2023/06/30 00:12:26;;;;;;;0.30;0.30;;;;;;;20.73;54.99;96464.16;29394;312;64008;-58
2023/06/30 00:12:57;;;;;;;0.30;0.30;;;;;;;20.72;55.14;96466.09;29395;243;63008;-52
2023/06/30 00:13:30;;;;;;;0.30;0.30;;;;;;;20.72;54.85;96466.09;29395;256;63005;-51
2023/06/30 00:14:01;;;;;;;2.42;2.28;;;;;;;20.71;55.11;96470.03;29395;269;63009;-58
2023/06/30 00:14:35;;;;;;;0.30;0.30;;;;;;;20.72;55.21;96460.59;29395;221;63005;-59
2023/06/30 00:15:07;;;;;;;0.30;0.30;;;;;;;20.72;54.92;96462.56;29395;312;63009;-59
2023/06/30 00:15:40;;;;;;;0.30;0.30;;;;;;;20.73;54.96;96462.19;29395;220;63005;-51
2023/06/30 00:16:12;;;;;;;0.30;0.30;;;;;;;20.72;55.23;96455.09;29395;202;63009;-59
2023/06/30 00:16:43;;;;;;;0.57;0.57;;;;;;;20.73;55.26;96456.69;29394;229;64009;-52
2023/06/30 00:17:14;;;;;;;0.30;0.30;;;;;;;20.74;54.86;96463.78;29395;212;63009;-52
2023/06/30 00:17:48;;;;;;;0.30;0.30;;;;;;;20.75;54.90;96453.56;29395;234;63004;-52
2023/06/30 00:18:19;;;;;;;0.30;0.30;;;;;;;20.75;54.84;96461.81;29394;219;64013;-50
2023/06/30 00:18:53;;;;;;;0.30;0.30;;;;;;;20.73;55.22;96459.44;29395;212;63004;-52
2023/06/30 00:19:26;;;;;;;0.30;0.30;;;;;;;20.73;54.78;96456.69;29395;241;63024;-58
2023/06/30 00:19:57;;;;;;;0.30;0.30;;;;;;;20.73;55.09;96456.69;29395;202;63004;-58
2023/06/30 00:20:28;;;;;;;0.30;0.30;;;;;;;20.72;54.90;96460.59;29394;287;64013;-59
2023/06/30 00:21:00;;;;;;;0.30;0.30;;;;;;;20.71;55.33;96453.50;29395;211;63005;-59
2023/06/30 00:21:34;;;;;;;0.30;0.30;;;;;;;20.72;55.22;96455.09;29395;211;63009;-59
2023/06/30 00:22:05;;;;;;;0.30;0.30;;;;;;;20.70;55.26;96454.66;29395;210;63008;-59
2023/06/30 00:22:37;;;;;;;0.30;0.30;;;;;;;20.69;55.49;96453.06;29395;224;63019;-53
2023/06/30 00:23:13;;;;;;;0.30;0.30;;;;;;;20.69;55.16;96455.03;29395;212;63005;-59
2023/06/30 00:23:44;;;;;;;0.30;0.30;;;;;;;20.68;55.29;96454.22;29395;242;63009;-53
2023/06/30 00:24:16;;;;;;;0.30;0.30;;;;;;;20.67;55.45;96447.13;29394;197;64009;-59
2023/06/30 00:24:58;;;;;;;0.30;0.30;;;;;;;20.67;55.25;96446.31;29395;208;63009;-50
2023/06/30 00:25:30;;;;;;;0.30;0.30;;;;;;;20.68;55.53;96442.41;29394;219;64009;-52
2023/06/30 00:26:07;;;;;;;0.30;0.30;;;;;;;20.68;55.07;96445.94;29395;295;63009;-58
2023/06/30 00:26:38;;;;;;;0.30;0.30;;;;;;;20.66;55.25;96440.00;29394;333;64004;-52
2023/06/30 00:27:10;;;;;;;0.30;0.30;;;;;;;20.68;55.09;96454.22;29395;202;63009;-52
2023/06/30 00:27:41;;;;;;;0.30;0.30;;;;;;;20.66;55.08;96445.53;29395;241;63000;-59
2023/06/30 00:28:13;;;;;;;0.30;0.30;;;;;;;20.66;55.40;96448.28;29395;207;63009;-52
2023/06/30 00:28:45;;;;;;;0.30;0.30;;;;;;;20.65;55.54;96449.44;29395;289;63011;-58
2023/06/30 00:29:16;;;;;;;0.30;0.30;;;;;;;20.65;55.49;96443.94;29394;257;64014;-52
2023/06/30 00:29:48;;;;;;;0.30;0.30;;;;;;;20.65;55.21;96443.94;29395;242;63005;-58
2023/06/30 00:30:19;;;;;;;0.30;0.30;;;;;;;20.65;55.50;96443.94;29395;254;63009;-59
2023/06/30 00:30:50;;;;;;;0.30;0.30;;;;;;;20.65;55.36;96443.94;29395;219;63005;-51
2023/06/30 00:31:21;;;;;;;0.30;0.30;;;;;;;20.64;55.53;96447.06;29395;277;63009;-52
2023/06/30 00:31:53;;;;;;;0.30;0.30;;;;;;;20.63;55.46;96443.50;29395;202;63004;-59
2023/06/30 00:32:27;;;;;;;0.30;0.30;;;;;;;20.63;55.68;96439.94;29395;246;63009;-58
2023/06/30 00:33:00;;;;;;;0.30;0.30;;;;;;;20.61;55.65;96434.81;29395;198;63004;-59
2023/06/30 00:33:32;;;;;;;0.30;0.30;;;;;;;20.61;55.41;96439.53;29394;203;64013;-51
2023/06/30 00:34:03;;;;;;;0.37;0.37;;;;;;;20.60;55.52;96435.16;29395;214;63004;-52
2023/06/30 00:34:35;;;;;;;0.30;0.30;;;;;;;20.59;55.70;96439.88;29395;277;63008;-59
2023/06/30 00:35:07;;;;;;;0.30;0.30;;;;;;;20.58;55.67;96438.28;29395;219;63004;-59
2023/06/30 00:35:38;;;;;;;0.30;0.30;;;;;;;20.58;55.67;96438.28;29395;205;63016;-58
2023/06/30 00:36:10;;;;;;;0.30;0.30;;;;;;;20.57;55.83;96433.94;29395;212;63005;-59
2023/06/30 00:36:41;;;;;;;0.30;0.30;;;;;;;20.56;55.98;96432.34;29395;209;63009;-52
2023/06/30 00:37:14;;;;;;;0.30;0.30;;;;;;;20.56;56.07;96429.59;29395;214;63005;-59
2023/06/30 00:37:46;;;;;;;0.30;0.30;;;;;;;20.57;55.91;96435.91;29395;227;63009;-52
2023/06/30 00:38:18;;;;;;;0.30;0.30;;;;;;;20.55;55.85;96430.75;29394;249;64009;-58
2023/06/30 00:38:54;;;;;;;0.30;0.30;;;;;;;20.54;56.20;96431.94;29395;273;63009;-59
2023/06/30 00:39:25;;;;;;;0.30;0.30;;;;;;;20.54;55.83;96436.63;29395;273;63004;-52
2023/06/30 00:39:57;;;;;;;0.30;0.30;;;;;;;20.52;56.19;96423.22;29395;222;63009;-59
2023/06/30 00:40:28;;;;;;;0.30;0.30;;;;;;;20.51;56.95;96432.66;29395;226;63004;-59
2023/06/30 00:41:00;;;;;;;0.30;0.30;;;;;;;20.49;56.96;96429.47;29395;292;63009;-59
2023/06/30 00:41:31;;;;;;;0.30;0.30;;;;;;;20.47;57.02;96434.56;29395;291;63004;-52
2023/06/30 00:42:03;;;;;;;0.30;0.30;;;;;;;20.45;57.22;96439.63;29394;211;64013;-58
2023/06/30 00:42:34;;;;;;;0.30;0.30;;;;;;;20.44;56.73;96427.06;29395;211;63005;-60
2023/06/30 00:43:06;;;;;;;0.30;0.30;;;;;;;20.43;57.09;96433.72;29395;213;63009;-58
2023/06/30 00:43:40;;;;;;;0.30;0.30;;;;;;;20.40;57.28;96431.69;29395;206;63005;-59
2023/06/30 00:44:12;;;;;;;0.30;0.30;;;;;;;20.38;57.28;96432.06;29395;300;63009;-52
2023/06/30 00:44:43;;;;;;;0.30;0.30;;;;;;;20.38;57.10;96434.03;29395;273;63005;-52
2023/06/30 00:45:15;;;;;;;0.30;0.30;;;;;;;20.35;57.53;96424.50;29395;296;63009;-51
2023/06/30 00:45:47;;;;;;;0.30;0.30;;;;;;;20.32;57.40;96425.22;29395;227;63005;-52
2023/06/30 00:46:19;;;;;;;0.30;0.30;;;;;;;20.32;57.75;96429.94;29395;237;63009;-58
2023/06/30 00:46:50;;;;;;;0.30;0.30;;;;;;;20.26;57.69;96425.91;29395;287;63004;-52
2023/06/30 00:47:22;;;;;;;0.30;0.30;;;;;;;20.29;57.56;96431.47;29394;304;64013;-58
2023/06/30 00:47:53;;;;;;;0.30;0.30;;;;;;;20.27;57.89;96430.25;29395;281;63004;-52
2023/06/30 00:48:25;;;;;;;0.30;0.30;;;;;;;20.26;57.64;96428.66;29394;319;64013;-57
2023/06/30 00:48:58;;;;;;;0.30;0.30;;;;;;;20.25;58.04;96424.31;29395;302;63004;-52
2023/06/30 00:49:31;;;;;;;0.30;0.30;;;;;;;20.24;58.11;96429.03;29395;318;63008;-58
2023/06/30 00:50:04;;;;;;;0.30;0.30;;;;;;;20.23;57.80;96426.63;29395;241;63005;-59
2023/06/30 00:50:36;;;;;;;0.30;0.30;;;;;;;20.22;58.14;96419.53;29394;199;64014;-58
2023/06/30 00:51:07;;;;;;;0.30;0.30;;;;;;;20.22;58.11;96427.78;29395;246;63005;-58
2023/06/30 00:51:40;;;;;;;0.30;0.30;;;;;;;20.21;58.50;96428.94;29395;233;63009;-58
2023/06/30 00:52:12;;;;;;;0.30;0.30;;;;;;;20.19;58.05;96421.06;29395;317;63005;-52
2023/06/30 00:52:45;;;;;;;0.37;0.37;;;;;;;20.19;58.41;96425.75;29395;198;63009;-52
2023/06/30 00:53:17;;;;;;;0.30;0.30;;;;;;;20.20;58.24;96421.84;29394;265;64009;-60
2023/06/30 00:53:48;;;;;;;0.30;0.30;;;;;;;20.22;58.03;96416.78;29395;212;63009;-59
2023/06/30 00:54:19;;;;;;;0.30;0.30;;;;;;;20.22;57.67;96414.81;29395;222;63004;-51
2023/06/30 00:54:51;;;;;;;0.30;0.30;;;;;;;20.25;57.55;96418.78;29394;220;64009;-59
2023/06/30 00:55:23;;;;;;;0.30;0.30;;;;;;;20.25;57.33;96416.03;29395;222;63004;-52
2023/06/30 00:55:55;;;;;;;0.30;0.30;;;;;;;20.24;57.64;96409.72;29395;202;63024;-52
2023/06/30 00:56:26;;;;;;;0.30;0.30;;;;;;;20.26;57.63;96409.38;29395;309;63004;-52
2023/06/30 00:56:59;;;;;;;0.30;0.30;;;;;;;20.26;57.32;96409.38;29394;212;64008;-58
2023/06/30 00:57:30;;;;;;;0.30;0.30;;;;;;;20.26;57.29;96414.88;29395;217;63004;-59
2023/06/30 00:58:01;;;;;;;0.30;0.30;;;;;;;20.26;57.49;96414.88;29395;204;63009;-53
2023/06/30 00:58:34;;;;;;;0.30;0.30;;;;;;;20.27;57.24;96413.72;29394;306;64009;-59
2023/06/30 00:59:08;;;;;;;0.30;0.30;;;;;;;20.25;57.58;96414.09;29395;290;63013;-52
2023/06/30 00:59:43;;;;;;;0.30;0.30;;;;;;;20.25;57.29;96414.09;29395;211;63005;-52
2023/06/30 01:00:15;;;;;;;0.30;0.30;;;;;;;20.25;57.45;96407.78;29395;199;63009;-59
2023/06/30 01:00:46;;;;;;;0.30;0.30;;;;;;;20.24;57.25;96411.69;29395;251;63005;-60
2023/06/30 01:01:42;;;;;;;0.30;0.30;;;;;;;20.23;57.50;96410.09;29395;318;63009;-60
2023/06/30 01:02:21;;;;;;;0.30;0.30;;;;;;;20.20;57.74;96414.38;29395;227;63004;-53
2023/06/30 01:03:27;;;;;;;0.30;0.30;;;;;;;20.19;57.53;96414.75;29394;335;64013;-59
2023/06/30 01:04:31;;;;;;;0.30;0.30;;;;;;;20.12;59.56;96426.44;29394;335;64009;-61
2023/06/30 01:05:10;;;;;;;0.30;0.30;;;;;;;20.06;59.45;96420.44;29395;196;63008;-52
2023/06/30 01:06:00;;;;;;;0.30;0.30;;;;;;;20.03;59.63;96428.63;29395;243;63005;-53
2023/06/30 01:06:51;;;;;;;0.30;0.30;;;;;;;19.97;59.67;96419.09;29395;197;63009;-59
2023/06/30 01:07:39;;;;;;;0.30;0.30;;;;;;;19.94;59.53;96417.84;29395;224;63005;-57
2023/06/30 01:08:25;;;;;;;0.40;0.40;;;;;;;19.92;59.91;96428.44;29394;247;64009;-59
2023/06/30 01:09:08;;;;;;;0.40;0.40;;;;;;;19.89;60.25;96420.91;29394;295;64009;-52
2023/06/30 01:10:22;;;;;;;0.30;0.30;;;;;;;19.87;59.89;96420.47;29395;257;63009;-59
2023/06/30 01:10:55;;;;;;;0.30;0.30;;;;;;;19.83;59.72;96414.09;29395;206;63004;-59
2023/06/30 01:11:27;;;;;;;0.30;0.30;;;;;;;19.82;59.96;96418.00;29395;251;63004;-53
2023/06/30 01:11:59;;;;;;;0.30;0.30;;;;;;;19.82;60.06;96411.69;29395;278;63004;-59
2023/06/30 01:12:32;;;;;;;0.30;0.30;;;;;;;19.79;60.04;96415.97;29395;296;63008;-59
2023/06/30 01:13:05;;;;;;;0.30;0.30;;;;;;;19.80;59.98;96412.06;29395;230;63005;-59
2023/06/30 01:13:40;;;;;;;0.30;0.30;;;;;;;19.78;60.02;96414.38;29395;219;63027;-51
2023/06/30 01:14:16;;;;;;;0.30;0.30;;;;;;;19.77;59.82;96415.53;29394;246;64009;-52
2023/06/30 01:14:48;;;;;;;0.40;0.40;;;;;;;19.76;59.75;96408.44;29395;263;63009;-59
2023/06/30 01:15:20;;;;;;;0.30;0.30;;;;;;;19.74;60.10;96411.59;29394;258;64005;-59
2023/06/30 01:15:54;;;;;;;0.30;0.30;;;;;;;19.75;59.92;96415.12;29395;257;63009;-59
2023/06/30 01:16:29;;;;;;;0.30;0.30;;;;;;;19.74;59.81;96410.78;29395;202;63005;-59
2023/06/30 01:17:03;;;;;;;0.30;0.30;;;;;;;19.72;60.13;96407.59;29395;255;63009;-59
2023/06/30 01:17:46;;;;;;;0.40;0.40;;;;;;;19.71;60.06;96404.06;29395;221;63004;-52
2023/06/30 01:18:21;;;;;;;0.30;0.30;;;;;;;19.70;60.07;96407.16;29395;212;63020;-60
2023/06/30 01:19:01;;;;;;;0.30;0.30;;;;;;;19.68;60.11;96404.78;29394;197;64009;-52
2023/06/30 01:19:39;;;;;;;0.30;0.30;;;;;;;19.67;60.49;96405.94;29395;210;63020;-59
2023/06/30 01:20:12;;;;;;;0.30;0.30;;;;;;;19.67;60.30;96399.62;29395;229;63004;-52
2023/06/30 01:20:45;;;;;;;0.40;0.40;;;;;;;19.67;60.41;96405.13;29395;274;63009;-52
2023/06/30 01:21:17;;;;;;;0.30;0.30;;;;;;;19.65;60.31;96407.47;29395;208;63005;-59
2023/06/30 01:21:50;;;;;;;0.30;0.30;;;;;;;19.64;60.31;96403.09;29395;289;63020;-59
2023/06/30 01:22:39;;;;;;;0.30;0.30;;;;;;;19.63;60.70;96404.25;29395;313;63005;-52
2023/06/30 01:23:28;;;;;;;0.30;0.30;;;;;;;19.61;60.54;96403.84;29394;335;64013;-59
2023/06/30 01:24:05;;;;;;;0.30;0.30;;;;;;;19.60;60.48;96407.75;29395;263;63005;-52
2023/06/30 01:24:38;;;;;;;0.30;0.30;;;;;;;19.57;60.67;96401.00;29395;274;63009;-59
2023/06/30 01:25:14;;;;;;;0.30;0.30;;;;;;;19.56;60.54;96404.13;29395;311;63004;-53
2023/06/30 01:25:47;;;;;;;0.30;0.30;;;;;;;19.54;60.57;96406.44;29395;202;63009;-59
2023/06/30 01:26:20;;;;;;;0.30;0.30;;;;;;;19.53;60.71;96407.59;29395;281;63006;-58
2023/06/30 01:26:53;;;;;;;0.30;0.30;;;;;;;19.52;61.12;96404.03;29394;330;64013;-51
2023/06/30 01:27:24;;;;;;;0.30;0.30;;;;;;;19.53;60.88;96407.59;29395;232;63014;-51
2023/06/30 01:27:57;;;;;;;0.30;0.30;;;;;;;19.52;61.32;96408.75;29395;293;63009;-58
2023/06/30 01:28:33;;;;;;;0.30;0.30;;;;;;;19.51;60.92;96398.91;29395;362;63005;-58
2023/06/30 01:29:06;;;;;;;0.30;0.30;;;;;;;19.51;61.18;96401.66;29395;358;63019;-52
2023/06/30 01:29:42;;;;;;;0.30;0.30;;;;;;;19.50;61.10;96405.53;29395;202;63005;-51
2023/06/30 01:30:14;;;;;;;0.30;0.30;;;;;;;19.51;60.94;96412.66;29394;210;64013;-57
2023/06/30 01:30:50;;;;;;;0.30;0.30;;;;;;;19.49;60.87;96410.25;29395;226;63016;-58
2023/06/30 01:31:21;;;;;;;0.40;0.40;;;;;;;19.49;61.03;96398.44;29395;202;63009;-52
2023/06/30 01:31:53;;;;;;;0.30;0.30;;;;;;;19.50;61.23;96400.03;29395;323;63005;-51
2023/06/30 01:32:25;;;;;;;0.30;0.30;;;;;;;19.50;61.47;96408.28;29394;200;64013;-52
2023/06/30 01:32:58;;;;;;;0.30;0.30;;;;;;;19.49;60.96;96412.19;29395;403;63004;-52
2023/06/30 01:33:29;;;;;;;0.30;0.30;;;;;;;19.49;61.00;96398.44;29395;281;63009;-53
2023/06/30 01:34:01;;;;;;;0.30;0.30;;;;;;;19.48;61.07;96400.38;29395;354;63004;-51
2023/06/30 01:34:33;;;;;;;0.30;0.30;;;;;;;19.47;61.26;96398.00;29395;242;63008;-51
2023/06/30 01:35:08;;;;;;;0.30;0.30;;;;;;;19.48;61.05;96396.84;29394;211;64008;-53
2023/06/30 01:35:40;;;;;;;0.40;0.40;;;;;;;19.47;61.40;96400.75;29395;297;63014;-52
2023/06/30 01:36:12;;;;;;;0.40;0.40;;;;;;;19.46;61.10;96394.44;29395;283;63005;-58
2023/06/30 01:36:43;;;;;;;0.30;0.30;;;;;;;19.47;61.36;96400.75;29395;235;63009;-52
2023/06/30 01:37:15;;;;;;;0.30;0.30;;;;;;;19.47;61.23;96400.75;29394;287;64009;-54
2023/06/30 01:37:46;;;;;;;0.30;0.30;;;;;;;19.47;61.04;96398.00;29395;247;63009;-52
2023/06/30 01:38:17;;;;;;;0.30;0.30;;;;;;;19.47;61.12;96395.25;29395;348;63000;-53
2023/06/30 01:38:48;;;;;;;0.40;0.40;;;;;;;19.46;61.43;96388.16;29395;222;63009;-53
2023/06/30 01:39:20;;;;;;;0.30;0.30;;;;;;;19.47;61.13;96395.25;29395;196;63004;-52
2023/06/30 01:39:51;;;;;;;0.40;0.40;;;;;;;19.48;61.46;96397.63;29395;197;63009;-53
2023/06/30 01:40:23;;;;;;;0.30;0.30;;;;;;;19.47;61.27;96396.03;29395;274;63000;-51
2023/06/30 01:40:56;;;;;;;0.30;0.30;;;;;;;19.47;61.32;96400.75;29395;232;63009;-52
2023/06/30 01:41:27;;;;;;;0.30;0.30;;;;;;;19.48;61.16;96399.59;29395;304;63004;-52
2023/06/30 01:41:59;;;;;;;0.35;0.35;;;;;;;19.47;61.37;96389.75;29394;286;64013;-52
2023/06/30 01:42:31;;;;;;;0.30;0.30;;;;;;;19.47;61.20;96396.03;29395;325;63017;-52
2023/06/30 01:43:02;;;;;;;0.30;0.30;;;;;;;19.47;60.86;96392.50;29395;249;63009;-51
2023/06/30 01:43:35;;;;;;;0.30;0.30;;;;;;;19.47;61.24;96390.53;29395;209;63005;-54
2023/06/30 01:44:06;;;;;;;0.30;0.30;;;;;;;19.48;61.20;96391.34;29394;316;64009;-52
2023/06/30 01:44:39;;;;;;;0.35;0.35;;;;;;;19.48;61.26;96396.84;29395;223;63005;-52
2023/06/30 01:45:12;;;;;;;0.30;0.30;;;;;;;19.47;60.99;96395.25;29394;211;64013;-52
2023/06/30 01:45:44;;;;;;;0.30;0.30;;;;;;;19.47;60.90;96389.75;29395;246;63005;-52
2023/06/30 01:46:16;;;;;;;0.30;0.30;;;;;;;19.47;61.00;96395.25;29394;252;64013;-52
2023/06/30 01:46:48;;;;;;;0.30;0.30;;;;;;;19.47;60.74;96392.50;29395;217;63004;-52
2023/06/30 01:47:20;;;;;;;0.30;0.30;;;;;;;19.47;61.03;96395.25;29395;279;63009;-52
2023/06/30 01:47:53;;;;;;;0.40;0.40;;;;;;;19.47;60.99;96395.25;29395;252;63004;-52
2023/06/30 01:48:25;;;;;;;0.30;0.30;;;;;;;19.46;60.99;96388.16;29394;211;64013;-58
2023/06/30 01:48:57;;;;;;;0.40;0.40;;;;;;;19.46;60.91;96390.91;29395;218;63004;-52
2023/06/30 01:49:28;;;;;;;0.30;0.30;;;;;;;19.46;60.92;96385.41;29395;268;63008;-52
2023/06/30 01:50:00;;;;;;;0.40;0.40;;;;;;;19.45;60.96;96381.84;29395;251;63018;-52
2023/06/30 01:50:32;;;;;;;0.40;0.40;;;;;;;19.46;60.90;96385.41;29395;208;63009;-51
2023/06/30 01:51:06;;;;;;;0.40;0.40;;;;;;;19.45;60.57;96381.06;29394;198;64009;-52
2023/06/30 01:51:37;;;;;;;0.37;0.37;;;;;;;19.45;61.14;96387.34;29395;216;63009;-52
2023/06/30 01:52:08;;;;;;;0.30;0.30;;;;;;;19.42;62.77;96388.87;29395;197;63005;-52
2023/06/30 01:52:40;;;;;;;0.40;0.40;;;;;;;19.37;63.28;96391.94;29395;197;63009;-52
2023/06/30 01:53:11;;;;;;;0.30;0.30;;;;;;;19.34;63.09;96386.38;29394;307;64009;-52
2023/06/30 01:53:42;;;;;;;0.30;0.30;;;;;;;19.32;62.75;96378.47;29395;258;63009;-52
2023/06/30 01:54:14;;;;;;;0.30;0.30;;;;;;;19.32;62.57;96383.97;29395;363;63004;-53
2023/06/30 01:54:45;;;;;;;0.30;0.30;;;;;;;19.32;62.15;96383.97;29395;230;63009;-59
2023/06/30 01:55:17;;;;;;;0.30;0.30;;;;;;;19.31;62.37;96382.38;29395;224;63004;-52
2023/06/30 01:55:49;;;;;;;0.30;0.30;;;;;;;19.31;62.15;96384.31;29395;361;63009;-52
2023/06/30 01:56:24;;;;;;;0.30;0.30;;;;;;;19.32;61.97;96385.91;29394;204;64008;-58
2023/06/30 01:56:55;;;;;;;0.30;0.30;;;;;;;19.32;61.88;96383.16;29395;248;63008;-51
2023/06/30 01:57:26;;;;;;;0.30;0.30;;;;;;;19.31;61.94;96382.38;29395;300;63005;-52
2023/06/30 01:57:58;;;;;;;0.37;0.37;;;;;;;19.32;62.01;96380.41;29395;227;63009;-52
2023/06/30 01:58:31;;;;;;;0.30;0.30;;;;;;;19.31;61.78;96382.38;29395;210;63005;-52
2023/06/30 01:59:02;;;;;;;0.30;0.30;;;;;;;19.31;61.91;96378.81;29395;228;63009;-50
2023/06/30 01:59:33;;;;;;;0.30;0.30;;;;;;;19.30;61.70;96386.28;29395;242;63005;-52
2023/06/30 02:00:06;;;;;;;0.30;0.30;;;;;;;19.31;61.71;96379.63;29395;269;63020;-52
2023/06/30 02:00:37;;;;;;;0.30;0.30;;;;;;;19.30;61.59;96375.28;29394;210;64009;-52
2023/06/30 02:01:08;;;;;;;0.30;0.30;;;;;;;19.29;61.97;96373.69;29395;256;63009;-51
2023/06/30 02:01:39;;;;;;;0.30;0.30;;;;;;;19.30;61.69;96369.78;29395;197;63004;-53
2023/06/30 02:02:12;;;;;;;0.30;0.30;;;;;;;19.31;61.26;96370.56;29395;197;63009;-59
2023/06/30 02:02:43;;;;;;;0.30;0.30;;;;;;;19.30;61.61;96375.28;29395;198;63004;-52
2023/06/30 02:03:14;;;;;;;0.30;0.30;;;;;;;19.31;61.22;96376.06;29395;224;63009;-59
2023/06/30 02:03:47;;;;;;;0.30;0.30;;;;;;;19.30;61.20;96372.53;29394;262;64009;-52
2023/06/30 02:04:19;;;;;;;0.30;0.30;;;;;;;19.31;61.54;96365.06;29395;225;63008;-53
2023/06/30 02:04:50;;;;;;;0.30;0.30;;;;;;;19.30;61.30;96367.03;29395;199;63005;-52
2023/06/30 02:05:21;;;;;;;0.30;0.30;;;;;;;19.30;61.07;96375.28;29395;324;63009;-52
2023/06/30 02:05:56;;;;;;;0.30;0.30;;;;;;;19.31;61.35;96373.31;29395;214;63005;-52
2023/06/30 02:06:27;;;;;;;0.30;0.30;;;;;;;19.30;61.07;96369.78;29394;208;64013;-52
2023/06/30 02:06:58;;;;;;;0.30;0.30;;;;;;;19.30;61.39;96369.78;29394;220;64009;-52
2023/06/30 02:07:29;;;;;;;0.30;0.30;;;;;;;19.30;61.06;96369.78;29395;214;63009;-52
2023/06/30 02:08:01;;;;;;;0.30;0.30;;;;;;;19.30;61.04;96375.28;29395;220;63005;-59
2023/06/30 02:08:41;;;;;;;0.30;0.30;;;;;;;19.30;61.17;96369.78;29394;198;64013;-60
2023/06/30 02:09:13;;;;;;;0.30;0.30;;;;;;;19.30;61.26;96372.53;29394;220;64004;-52
2023/06/30 02:09:45;;;;;;;0.30;0.30;;;;;;;19.30;61.43;96375.28;29395;266;63009;-58
2023/06/30 02:10:16;;;;;;;0.30;0.30;;;;;;;19.29;61.64;96373.69;29395;272;63004;-52
2023/06/30 02:10:47;;;;;;;0.30;0.30;;;;;;;19.28;61.88;96376.81;29395;264;63009;-52
2023/06/30 02:11:21;;;;;;;0.30;0.30;;;;;;;19.22;64.23;96376.28;29395;228;63004;-52
2023/06/30 02:11:52;;;;;;;0.30;0.30;;;;;;;19.18;63.57;96383.66;29395;307;63008;-52
2023/06/30 02:12:23;;;;;;;0.30;0.30;;;;;;;19.17;63.17;96371.06;29395;230;63005;-52
2023/06/30 02:12:55;;;;;;;0.30;0.30;;;;;;;19.17;62.85;96375.75;29394;301;64014;-52
2023/06/30 02:13:26;;;;;;;0.30;0.30;;;;;;;19.16;62.94;96371.44;29395;225;63005;-52
2023/06/30 02:13:58;;;;;;;0.30;0.30;;;;;;;19.16;62.36;96380.47;29394;209;64013;-58
2023/06/30 02:14:29;;;;;;;0.30;0.30;;;;;;;19.16;62.65;96374.97;29395;221;63009;-52
2023/06/30 02:15:01;;;;;;;0.30;0.30;;;;;;;19.16;62.26;96377.72;29395;262;63009;-52
2023/06/30 02:15:33;;;;;;;0.30;0.30;;;;;;;19.15;62.38;96378.88;29396;209;63011;-52
2023/06/30 02:16:04;;;;;;;0.30;0.30;;;;;;;19.15;62.16;96378.88;29396;211;63009;-52
2023/06/30 02:16:36;;;;;;;0.30;0.30;;;;;;;19.16;62.38;96379.66;29396;211;63004;-51
2023/06/30 02:17:10;;;;;;;0.60;0.60;;;;;;;19.15;62.25;96381.63;29396;228;63009;-52
2023/06/30 02:17:41;;;;;;;0.30;0.30;;;;;;;19.16;62.24;96379.66;29395;209;63004;-52
2023/06/30 02:18:13;;;;;;;0.30;0.30;;;;;;;19.15;62.21;96376.12;29395;211;64013;-60
2023/06/30 02:18:45;;;;;;;0.30;0.30;;;;;;;19.15;62.01;96378.09;29396;231;63004;-52
2023/06/30 02:19:16;;;;;;;0.30;0.30;;;;;;;19.14;62.22;96377.28;29396;197;63008;-51
2023/06/30 02:19:47;;;;;;;0.30;0.30;;;;;;;19.14;61.94;96377.28;29396;219;63005;-58
2023/06/30 02:20:21;;;;;;;0.30;0.30;;;;;;;19.12;61.92;96371.34;29396;231;63009;-52
2023/06/30 02:20:53;;;;;;;0.30;0.30;;;;;;;19.13;61.74;96377.62;29396;257;63005;-52
2023/06/30 02:21:26;;;;;;;0.30;0.30;;;;;;;19.12;61.95;96374.09;29396;197;63009;-52
2023/06/30 02:21:57;;;;;;;0.30;0.30;;;;;;;19.12;62.20;96379.59;29396;209;63005;-52
2023/06/30 02:22:28;;;;;;;0.30;0.30;;;;;;;19.12;62.31;96382.34;29396;236;63009;-51
2023/06/30 02:22:59;;;;;;;0.30;0.30;;;;;;;19.10;62.38;96370.91;29395;203;64009;-57
2023/06/30 02:23:31;;;;;;;0.30;0.30;;;;;;;19.09;62.19;96380.31;29396;223;63009;-52
2023/06/30 02:24:02;;;;;;;0.30;0.30;;;;;;;19.08;62.31;96375.97;29396;241;63004;-51
2023/06/30 02:24:34;;;;;;;0.30;0.30;;;;;;;19.10;62.41;96376.41;29396;209;63009;-58
2023/06/30 02:25:06;;;;;;;0.30;0.30;;;;;;;19.08;62.22;96368.53;29396;221;63004;-52
2023/06/30 02:25:37;;;;;;;0.30;0.30;;;;;;;19.08;62.30;96373.22;29396;232;63014;-52
2023/06/30 02:26:08;;;;;;;0.30;0.30;;;;;;;19.08;62.45;96384.22;29396;226;63004;-52
2023/06/30 02:26:40;;;;;;;0.30;0.30;;;;;;;19.07;62.47;96382.63;29396;261;63008;-52
2023/06/30 02:27:16;;;;;;;0.30;0.30;;;;;;;19.06;62.69;96381.03;29396;288;63011;-52
2023/06/30 02:27:50;;;;;;;0.30;0.30;;;;;;;19.05;62.52;96382.22;29396;277;63009;-52
2023/06/30 02:28:22;;;;;;;0.30;0.30;;;;;;;19.03;62.41;96376.28;29395;261;64009;-53
2023/06/30 02:28:53;;;;;;;0.30;0.30;;;;;;;19.02;62.58;96385.69;29396;339;63009;-52
2023/06/30 02:29:24;;;;;;;0.30;0.30;;;;;;;19.01;62.63;96379.38;29396;232;63005;-52
2023/06/30 02:29:56;;;;;;;0.30;0.30;;;;;;;19.01;62.72;96386.84;29396;252;63009;-52
2023/06/30 02:30:28;;;;;;;0.30;0.30;;;;;;;19.01;62.85;96384.88;29396;249;63016;-51
2023/06/30 02:30:59;;;;;;;0.40;0.40;;;;;;;19.00;62.65;96377.00;29396;257;63009;-52
2023/06/30 02:31:30;;;;;;;0.40;0.40;;;;;;;18.99;62.80;96381.69;29396;213;63005;-52
2023/06/30 02:32:02;;;;;;;0.40;0.40;;;;;;;18.99;62.64;96386.41;29396;245;63009;-52
2023/06/30 02:32:37;;;;;;;0.40;0.40;;;;;;;18.98;62.76;96387.56;29396;212;63000;-52
2023/06/30 02:33:09;;;;;;;0.40;0.40;;;;;;;18.98;62.73;96382.06;29395;245;64013;-52
2023/06/30 02:33:40;;;;;;;0.30;0.30;;;;;;;18.97;62.78;96384.00;29396;245;63004;-52
2023/06/30 02:34:12;;;;;;;0.30;0.30;;;;;;;18.96;62.93;96381.63;29396;215;63008;-52
2023/06/30 02:34:43;;;;;;;0.30;0.30;;;;;;;18.96;62.74;96387.13;29396;203;63004;-52
2023/06/30 02:35:14;;;;;;;0.30;0.30;;;;;;;18.96;62.69;96387.91;29395;221;64014;-52
2023/06/30 02:35:46;;;;;;;0.30;0.30;;;;;;;18.95;62.75;96380.03;29396;214;63005;-59
2023/06/30 02:36:17;;;;;;;0.30;0.30;;;;;;;18.94;62.96;96383.94;29396;239;63009;-52
2023/06/30 02:36:50;;;;;;;0.30;0.30;;;;;;;18.92;62.86;96384.28;29396;288;63005;-52
2023/06/30 02:37:23;;;;;;;0.40;0.40;;;;;;;18.93;63.02;96382.34;29396;219;63009;-52
2023/06/30 02:37:54;;;;;;;0.30;0.30;;;;;;;18.93;62.90;96382.34;29396;198;63005;-58
2023/06/30 02:38:27;;;;;;;0.40;0.40;;;;;;;18.91;62.82;96384.62;29395;223;64013;-59